createdAt,value
2024-03-05T00:01:25.356Z,6.80
2024-03-05T00:04:02.733Z,6.90
2024-03-05T00:06:37.827Z,6.80
2024-03-05T00:09:11.247Z,6.80
2024-03-05T00:11:44.107Z,6.80
2024-03-05T00:14:16.851Z,6.70
2024-03-05T00:16:48.598Z,6.90
2024-03-05T00:19:20.309Z,6.80
2024-03-05T00:21:53.190Z,6.70
2024-03-05T00:24:27.487Z,6.70
2024-03-05T00:27:01.426Z,6.60
2024-03-05T00:29:33.015Z,6.60
2024-03-05T00:32:03.835Z,6.50
2024-03-05T00:34:40.460Z,6.50
2024-03-05T00:37:13.360Z,8.20
2024-03-05T00:39:47.346Z,6.50
2024-03-05T00:42:22.370Z,6.50
2024-03-05T00:44:54.429Z,6.50
2024-03-05T00:47:27.498Z,6.50
2024-03-05T00:50:01.951Z,6.20
2024-03-05T00:52:37.376Z,6.50
2024-03-05T00:55:13.431Z,6.30
2024-03-05T00:57:47.604Z,6.40
2024-03-05T01:00:21.181Z,7.10
2024-03-05T01:02:51.666Z,6.40
2024-03-05T01:05:24.622Z,6.40
2024-03-05T01:07:57.998Z,6.30
2024-03-05T01:10:31.888Z,6.30
2024-03-05T01:13:02.209Z,6.40
2024-03-05T01:15:32.378Z,6.30
2024-03-05T01:18:09.990Z,6.30
2024-03-05T01:20:42.911Z,6.30
2024-03-05T01:23:16.751Z,6.40
2024-03-05T01:25:52.185Z,6.30
2024-03-05T01:28:27.079Z,6.30
2024-03-05T01:31:02.486Z,6.20
2024-03-05T01:33:35.506Z,6.40
2024-03-05T01:36:05.339Z,6.30
2024-03-05T01:38:34.989Z,6.40
2024-03-05T01:41:06.409Z,6.80
2024-03-05T01:43:35.380Z,6.30
2024-03-05T01:46:06.003Z,6.30
2024-03-05T01:48:35.811Z,6.30
2024-03-05T01:51:06.745Z,6.30
2024-03-05T01:53:36.240Z,6.30
2024-03-05T01:56:08.416Z,6.30
2024-03-05T01:58:40.873Z,6.20
2024-03-05T02:01:18.594Z,6.30
2024-03-05T02:03:51.890Z,6.30
2024-03-05T02:06:28.633Z,6.00
2024-03-05T02:09:13.959Z,6.50
2024-03-05T02:12:17.898Z,5.90
2024-03-05T02:14:55.809Z,6.30
2024-03-05T02:17:29.566Z,6.00
2024-03-05T02:20:07.334Z,5.90
2024-03-05T02:22:50.549Z,5.90
2024-03-05T02:25:22.863Z,5.90
2024-03-05T02:28:05.476Z,5.90
2024-03-05T02:30:41.986Z,5.90
2024-03-05T02:33:25.838Z,5.80
2024-03-05T02:36:08.998Z,5.90
2024-03-05T02:39:00.328Z,5.90
2024-03-05T02:41:42.397Z,5.80
2024-03-05T02:44:33.276Z,5.80
2024-03-05T02:47:06.065Z,5.90
2024-03-05T02:49:41.700Z,5.90
2024-03-05T02:52:29.728Z,5.80
2024-03-05T02:55:20.990Z,5.80
2024-03-05T02:58:06.660Z,5.80
2024-03-05T03:00:42.574Z,5.50
2024-03-05T03:03:33.520Z,5.50
2024-03-05T03:06:17.846Z,5.60
2024-03-05T03:08:51.163Z,5.60
2024-03-05T03:11:39.299Z,5.70
2024-03-05T03:14:21.321Z,5.50
2024-03-05T03:16:59.639Z,5.60
2024-03-05T03:19:33.315Z,5.50
2024-03-05T03:22:06.573Z,5.50
2024-03-05T03:24:46.346Z,5.50
2024-03-05T03:27:23.097Z,5.40
2024-03-05T03:29:57.824Z,5.50
2024-03-05T03:32:50.067Z,5.40
2024-03-05T03:35:33.478Z,5.40
2024-03-05T03:38:16.265Z,5.50
2024-03-05T03:40:49.496Z,5.30
2024-03-05T03:43:21.700Z,5.50
2024-03-05T03:45:57.230Z,5.40
2024-03-05T03:48:33.856Z,5.60
2024-03-05T03:51:14.553Z,5.30
2024-03-05T03:53:59.506Z,5.40
2024-03-05T03:56:47.112Z,5.90
2024-03-05T03:59:39.281Z,5.20
2024-03-05T04:02:33.207Z,5.40
2024-03-05T04:05:20.475Z,5.30
2024-03-05T04:08:04.703Z,5.30
2024-03-05T04:10:50.053Z,5.30
2024-03-05T04:13:27.743Z,5.30
2024-03-05T04:16:13.970Z,5.20
2024-03-05T04:18:56.723Z,5.30
2024-03-05T04:21:35.080Z,5.30
2024-03-05T04:24:15.446Z,5.60
2024-03-05T04:26:57.403Z,5.30
2024-03-05T04:29:43.226Z,5.30
2024-03-05T04:32:25.731Z,5.40
2024-03-05T04:35:12.497Z,5.50
2024-03-05T04:37:56.697Z,5.20
2024-03-05T04:40:52.351Z,5.30
2024-03-05T04:43:28.933Z,5.30
2024-03-05T04:46:11.213Z,5.30
2024-03-05T04:48:45.072Z,5.30
2024-03-05T04:51:19.745Z,5.30
2024-03-05T04:53:59.592Z,5.60
2024-03-05T04:56:40.940Z,5.20
2024-03-05T04:59:27.132Z,5.20
2024-03-05T05:01:58.860Z,5.30
2024-03-05T05:04:29.709Z,5.30
2024-03-05T05:06:58.898Z,5.30
2024-03-05T05:09:28.169Z,5.30
2024-03-05T05:11:57.769Z,5.20
2024-03-05T05:14:27.856Z,5.20
2024-03-05T05:16:58.041Z,5.30
2024-03-05T05:19:30.114Z,5.20
2024-03-05T05:21:59.715Z,5.20
2024-03-05T05:24:29.086Z,5.20
2024-03-05T05:26:58.083Z,5.20
2024-03-05T05:29:37.017Z,5.10
2024-03-05T05:32:11.212Z,5.20
2024-03-05T05:34:41.961Z,4.90
2024-03-05T05:39:40.479Z,5.00
2024-03-05T05:42:13.470Z,5.10
2024-03-05T05:44:44.667Z,5.40
2024-03-05T05:47:14.767Z,5.30
2024-03-05T05:49:46.574Z,5.20
2024-03-05T05:52:16.003Z,5.10
2024-03-05T05:54:49.121Z,5.00
2024-03-05T05:57:22.975Z,5.10
2024-03-05T06:00:00.172Z,5.00
2024-03-05T06:02:33.957Z,5.10
2024-03-05T06:05:11.337Z,5.10
2024-03-05T06:07:47.924Z,5.20
2024-03-05T06:10:21.007Z,5.30
2024-03-05T06:12:57.269Z,5.20
2024-03-05T06:15:30.892Z,5.20
2024-03-05T06:18:06.496Z,5.20
2024-03-05T06:20:37.923Z,5.10
2024-03-05T06:23:14.081Z,4.90
2024-03-05T06:25:51.750Z,5.00
2024-03-05T06:28:24.233Z,5.20
2024-03-05T06:33:34.907Z,5.10
2024-03-05T06:36:12.759Z,5.10
2024-03-05T06:38:47.413Z,5.10
2024-03-05T06:41:16.669Z,5.20
2024-03-05T06:43:45.620Z,5.30
2024-03-05T06:46:16.474Z,5.20
2024-03-05T06:48:50.255Z,5.30
2024-03-05T06:51:33.012Z,5.20
2024-03-05T06:54:22.327Z,5.30
2024-03-05T06:59:25.561Z,5.20
2024-03-05T07:01:58.403Z,5.20
2024-03-05T07:04:33.236Z,5.20
2024-03-05T07:07:05.263Z,5.10
2024-03-05T07:09:36.413Z,5.20
2024-03-05T07:12:08.453Z,5.10
2024-03-05T07:14:41.231Z,4.60
2024-03-05T07:19:39.541Z,5.00
2024-03-05T07:22:09.686Z,5.00
2024-03-05T07:24:39.841Z,5.00
2024-03-05T07:27:09.762Z,7.20
2024-03-05T07:29:41.978Z,5.10
2024-03-05T07:34:46.084Z,4.90
2024-03-05T07:37:16.368Z,6.20
2024-03-05T07:39:45.565Z,4.90
2024-03-05T07:42:16.313Z,4.90
2024-03-05T07:44:45.370Z,5.00
2024-03-05T07:47:17.861Z,4.80
2024-03-05T07:49:48.368Z,4.90
2024-03-05T07:52:21.340Z,4.80
2024-03-05T07:54:52.808Z,4.70
2024-03-05T07:57:24.885Z,4.70
2024-03-05T08:04:55.413Z,4.90
2024-03-05T08:07:26.354Z,5.00
2024-03-05T08:09:56.542Z,5.00
2024-03-05T08:12:28.139Z,5.00
2024-03-05T08:15:02.187Z,5.00
2024-03-05T08:17:37.201Z,4.90
2024-03-05T08:20:09.588Z,5.00
2024-03-05T08:22:44.057Z,5.00
2024-03-05T08:25:15.364Z,4.80
2024-03-05T08:27:45.960Z,5.10
2024-03-05T08:30:18.077Z,5.10
2024-03-05T08:32:47.845Z,5.10
2024-03-05T08:35:17.222Z,5.10
2024-03-05T08:37:48.514Z,5.10
2024-03-05T08:40:19.066Z,5.00
2024-03-05T08:42:49.267Z,5.20
2024-03-05T08:45:21.158Z,5.20
2024-03-05T08:47:51.559Z,4.70
2024-03-05T08:50:21.181Z,5.30
2024-03-05T08:52:51.459Z,5.20
2024-03-05T08:55:20.493Z,5.50
2024-03-05T08:57:49.528Z,5.50
2024-03-05T09:02:50.747Z,5.40
2024-03-05T09:05:21.244Z,5.50
2024-03-05T09:07:53.503Z,5.40
2024-03-05T09:10:24.277Z,5.30
2024-03-05T09:12:54.104Z,5.30
2024-03-05T09:15:22.881Z,5.80
2024-03-05T09:17:51.579Z,5.30
2024-03-05T09:20:20.943Z,5.40
2024-03-05T09:22:52.497Z,5.40
2024-03-05T09:25:21.478Z,5.40
2024-03-05T09:27:50.467Z,5.30
2024-03-05T09:30:20.810Z,5.30
2024-03-05T09:32:49.687Z,5.40
2024-03-05T09:35:19.421Z,5.40
2024-03-05T09:37:48.384Z,5.50
2024-03-05T09:40:19.966Z,5.50
2024-03-05T09:42:49.497Z,5.30
2024-03-05T09:45:19.896Z,5.40
2024-03-05T09:47:49.695Z,5.50
2024-03-05T09:50:19.526Z,5.30
2024-03-05T09:52:49.132Z,5.10
2024-03-05T09:55:20.862Z,5.20
2024-03-05T09:57:50.907Z,5.10
2024-03-05T10:00:20.690Z,5.20
2024-03-05T10:05:20.913Z,5.20
2024-03-05T10:07:51.515Z,5.30
2024-03-05T10:10:23.397Z,5.40
2024-03-05T10:12:54.269Z,5.40
2024-03-05T10:15:27.841Z,5.30
2024-03-05T10:17:58.238Z,5.40
2024-03-05T10:20:31.522Z,5.30
2024-03-05T10:23:06.418Z,5.70
2024-03-05T10:25:44.476Z,5.70
2024-03-05T10:28:15.360Z,5.70
2024-03-05T10:33:17.362Z,5.80
2024-03-05T10:35:53.109Z,5.80
2024-03-05T10:38:27.398Z,5.90
2024-03-05T10:40:58.958Z,6.10
2024-03-05T10:43:30.890Z,6.20
2024-03-05T10:46:04.098Z,6.20
2024-03-05T10:48:35.902Z,6.30
2024-03-05T10:51:09.341Z,6.40
2024-03-05T10:53:41.875Z,6.30
2024-03-05T10:56:17.906Z,6.30
2024-03-05T10:59:22.238Z,6.60
2024-03-05T11:01:55.980Z,6.50
2024-03-05T11:04:32.186Z,7.10
2024-03-05T11:07:07.049Z,6.80
2024-03-05T11:09:43.088Z,7.10
2024-03-05T11:12:22.216Z,7.20
2024-03-05T11:14:57.219Z,7.50
2024-03-05T11:17:28.756Z,7.70
2024-03-05T11:20:02.592Z,7.60
2024-03-05T11:22:32.536Z,8.10
2024-03-05T11:25:04.196Z,7.90
2024-03-05T11:27:37.033Z,7.80
2024-03-05T11:30:13.922Z,7.70
2024-03-05T11:32:47.941Z,7.70
2024-03-05T11:35:21.763Z,7.70
2024-03-05T11:37:54.046Z,7.60
2024-03-05T11:40:33.580Z,7.90
2024-03-05T11:43:06.217Z,7.40
2024-03-05T11:45:54.021Z,7.50
2024-03-05T11:48:24.726Z,7.40
2024-03-05T11:50:56.469Z,7.60
2024-03-05T11:53:27.051Z,7.40
2024-03-05T11:55:56.944Z,7.70
2024-03-05T11:58:28.647Z,7.50
2024-03-05T12:01:04.159Z,7.30
2024-03-05T12:03:34.077Z,7.40
2024-03-05T12:06:04.438Z,7.30
2024-03-05T12:08:36.082Z,7.40
2024-03-05T12:11:07.499Z,7.50
2024-03-05T12:13:40.439Z,7.40
2024-03-05T12:16:11.353Z,7.20
2024-03-05T12:18:41.940Z,7.20
2024-03-05T12:21:11.936Z,7.30
2024-03-05T12:23:43.281Z,7.30
2024-03-05T12:26:14.241Z,7.30
2024-03-05T12:28:45.298Z,7.50
2024-03-05T12:31:14.422Z,8.20
2024-03-05T12:33:43.364Z,7.20
2024-03-05T12:36:17.098Z,7.20
2024-03-05T12:38:46.310Z,7.10
2024-03-05T12:41:21.920Z,7.20
2024-03-05T12:43:57.510Z,7.10
2024-03-05T12:46:28.244Z,7.00
2024-03-05T12:49:02.702Z,7.10
2024-03-05T12:51:32.686Z,7.30
2024-03-05T12:54:12.246Z,7.20
2024-03-05T12:56:43.814Z,7.40
2024-03-05T12:59:22.793Z,7.40
2024-03-05T13:01:55.269Z,7.30
2024-03-05T13:04:25.847Z,7.30
2024-03-05T13:06:55.168Z,7.20
2024-03-05T13:09:25.223Z,7.20
2024-03-05T13:11:55.638Z,7.30
2024-03-05T13:14:27.456Z,7.40
2024-03-05T13:16:56.712Z,7.60
2024-03-05T13:19:27.567Z,7.50
2024-03-05T13:21:58.580Z,7.60
2024-03-05T13:24:29.088Z,7.60
2024-03-05T13:26:58.708Z,7.80
2024-03-05T13:29:30.382Z,7.70
2024-03-05T13:32:01.795Z,7.80
2024-03-05T13:34:31.898Z,7.90
2024-03-05T13:37:02.390Z,7.80
2024-03-05T13:39:32.272Z,7.80
2024-03-05T13:42:04.081Z,7.50
2024-03-05T13:44:35.296Z,7.10
2024-03-05T13:47:07.070Z,7.60
2024-03-05T13:49:38.017Z,7.60
2024-03-05T13:52:10.236Z,7.60
2024-03-05T13:54:40.418Z,7.60
2024-03-05T13:57:12.505Z,7.50
2024-03-05T13:59:47.552Z,7.60
2024-03-05T14:02:18.179Z,7.60
2024-03-05T14:04:50.802Z,7.50
2024-03-05T14:07:21.552Z,7.40
2024-03-05T14:09:51.258Z,7.40
2024-03-05T14:12:23.888Z,7.70
2024-03-05T14:14:54.838Z,7.50
2024-03-05T14:17:26.161Z,7.60
2024-03-05T14:19:58.687Z,7.60
2024-03-05T14:22:29.161Z,7.80
2024-03-05T14:24:58.872Z,7.80
2024-03-05T14:27:30.956Z,7.80
2024-03-05T14:30:01.712Z,7.80
2024-03-05T14:32:32.477Z,7.80
2024-03-05T14:35:02.441Z,7.80
2024-03-05T14:37:33.981Z,7.70
2024-03-05T14:40:04.530Z,7.70
2024-03-05T14:42:37.737Z,7.70
2024-03-05T14:45:11.295Z,7.70
2024-03-05T14:47:40.115Z,7.60
2024-03-05T14:50:09.975Z,7.90
2024-03-05T14:52:39.688Z,8.00
2024-03-05T14:55:11.102Z,8.10
2024-03-05T14:57:42.395Z,6.10
2024-03-05T15:00:15.125Z,7.90
2024-03-05T15:02:47.926Z,7.80
2024-03-05T15:05:20.433Z,7.80
2024-03-05T15:07:55.068Z,7.70
2024-03-05T15:10:29.943Z,7.70
2024-03-05T15:13:00.575Z,7.70
2024-03-05T15:15:31.157Z,7.70
2024-03-05T15:18:08.404Z,7.70
2024-03-05T15:20:47.468Z,7.30
2024-03-05T15:23:32.502Z,7.50
2024-03-05T15:26:15.586Z,7.50
2024-03-05T15:28:49.046Z,7.70
2024-03-05T15:31:26.747Z,7.40
2024-03-05T15:34:08.238Z,7.30
2024-03-05T15:36:40.103Z,7.10
2024-03-05T15:41:50.242Z,6.70
2024-03-05T15:44:28.228Z,7.00
2024-03-05T15:47:03.596Z,6.90
2024-03-05T15:49:42.934Z,7.00
2024-03-05T15:52:21.607Z,6.90
2024-03-05T15:55:00.585Z,6.90
2024-03-05T15:57:55.093Z,6.90
2024-03-05T16:00:33.394Z,6.90
2024-03-05T16:03:15.191Z,6.90
2024-03-05T16:05:59.904Z,6.90
2024-03-05T16:08:38.068Z,6.80
2024-03-05T16:11:13.472Z,6.70
2024-03-05T16:13:50.698Z,6.70
2024-03-05T16:16:27.795Z,6.70
2024-03-05T16:19:07.594Z,6.70
2024-03-05T16:21:41.985Z,6.60
2024-03-05T16:24:13.293Z,6.60
2024-03-05T16:26:42.226Z,6.60
2024-03-05T16:29:12.107Z,6.50
2024-03-05T16:31:57.509Z,5.90
2024-03-05T16:34:45.517Z,6.40
2024-03-05T16:37:20.318Z,6.30
2024-03-05T16:39:52.228Z,6.30
2024-03-05T16:42:25.389Z,6.50
2024-03-05T16:44:57.973Z,6.10
2024-03-05T16:47:32.957Z,6.70
2024-03-05T16:50:08.865Z,6.00
2024-03-05T16:52:43.376Z,6.00
2024-03-05T16:55:28.655Z,5.90
2024-03-05T16:58:17.945Z,6.00
2024-03-05T17:01:09.628Z,5.90
2024-03-05T17:03:49.787Z,5.80
2024-03-05T17:06:27.996Z,5.70
2024-03-05T17:09:11.124Z,5.60
2024-03-05T17:11:49.907Z,5.60
2024-03-05T17:14:30.167Z,5.50
2024-03-05T17:17:08.082Z,6.00
2024-03-05T17:19:54.122Z,5.90
2024-03-05T17:22:37.010Z,5.40
2024-03-05T17:25:13.634Z,5.40
2024-03-05T17:27:56.177Z,5.40
2024-03-05T17:30:37.420Z,5.40
2024-03-05T17:33:16.210Z,5.40
2024-03-05T17:35:56.571Z,5.40
2024-03-05T17:38:39.218Z,5.40
2024-03-05T17:41:14.693Z,5.40
2024-03-05T17:43:54.642Z,5.40
2024-03-05T17:46:36.104Z,5.40
2024-03-05T17:49:16.460Z,5.40
2024-03-05T17:51:49.794Z,5.30
2024-03-05T17:54:29.028Z,5.40
2024-03-05T17:57:06.803Z,5.40
2024-03-05T17:59:49.148Z,5.30
2024-03-05T18:02:22.351Z,5.40
2024-03-05T18:04:54.369Z,5.30
2024-03-05T18:07:28.303Z,5.30
2024-03-05T18:10:01.327Z,5.30
2024-03-05T18:12:35.038Z,6.00
2024-03-05T18:15:10.542Z,5.20
2024-03-05T18:17:48.416Z,5.20
2024-03-05T18:20:33.843Z,5.10
2024-03-05T18:23:11.782Z,5.10
2024-03-05T18:25:51.556Z,5.10
2024-03-05T18:28:29.424Z,5.00
2024-03-05T18:31:10.943Z,5.00
2024-03-05T18:33:41.764Z,4.90
2024-03-05T18:36:14.408Z,4.90
2024-03-05T18:38:49.587Z,4.70
2024-03-05T18:41:38.765Z,4.80
2024-03-05T18:44:24.648Z,4.80
2024-03-05T18:47:09.579Z,4.80
2024-03-05T18:49:56.812Z,4.70
2024-03-05T18:52:34.962Z,4.60
2024-03-05T18:55:14.010Z,4.90
2024-03-05T18:57:54.095Z,4.60
2024-03-05T19:00:27.993Z,4.60
2024-03-05T19:03:06.217Z,4.50
2024-03-05T19:05:47.951Z,4.50
2024-03-05T19:08:29.092Z,4.50
2024-03-05T19:11:12.934Z,4.40
2024-03-05T19:14:02.321Z,4.40
2024-03-05T19:16:38.118Z,4.20
2024-03-05T19:19:14.806Z,4.40
2024-03-05T19:21:51.373Z,4.50
2024-03-05T19:24:29.410Z,4.30
2024-03-05T19:27:11.877Z,4.30
2024-03-05T19:29:43.792Z,4.30
2024-03-05T19:32:15.587Z,4.30
2024-03-05T19:34:59.835Z,4.30
2024-03-05T19:37:42.099Z,4.30
2024-03-05T19:40:21.407Z,4.20
2024-03-05T19:43:00.458Z,4.30
2024-03-05T19:45:34.877Z,4.30
2024-03-05T19:48:15.557Z,4.30
2024-03-05T19:50:48.840Z,4.30
2024-03-05T19:53:18.741Z,4.30
2024-03-05T19:55:56.652Z,4.50
2024-03-05T19:58:33.159Z,4.60
2024-03-05T20:01:12.164Z,4.30
2024-03-05T20:03:46.964Z,4.30
2024-03-05T20:06:19.625Z,4.20
2024-03-05T20:08:55.372Z,4.30
2024-03-05T20:11:29.327Z,4.30
2024-03-05T20:13:59.958Z,4.30
2024-03-05T20:16:38.205Z,4.20
2024-03-05T20:19:12.168Z,4.20
2024-03-05T20:21:44.230Z,4.20
2024-03-05T20:24:25.604Z,4.20
2024-03-05T20:27:15.134Z,4.20
2024-03-05T20:29:55.834Z,4.40
2024-03-05T20:32:34.230Z,4.50
2024-03-05T20:35:08.908Z,4.20
2024-03-05T20:37:40.183Z,4.20
2024-03-05T20:40:14.180Z,4.10
2024-03-05T20:42:56.123Z,4.10
2024-03-05T20:45:30.658Z,4.10
2024-03-05T20:48:17.713Z,4.10
2024-03-05T20:51:05.177Z,4.10
2024-03-05T20:53:44.136Z,4.00
2024-03-05T20:56:29.336Z,4.00
2024-03-05T20:59:10.319Z,4.00
2024-03-05T21:01:50.521Z,4.00
2024-03-05T21:04:32.357Z,4.00
2024-03-05T21:07:19.101Z,4.00
2024-03-05T21:10:09.448Z,4.20
2024-03-05T21:12:56.489Z,3.90
2024-03-05T21:15:35.779Z,3.90
2024-03-05T21:18:18.053Z,3.80
2024-03-05T21:20:59.639Z,3.80
2024-03-05T21:23:39.194Z,3.80
2024-03-05T21:26:34.549Z,3.60
2024-03-05T21:32:34.857Z,3.60
2024-03-05T21:35:12.557Z,3.80
2024-03-05T21:38:00.422Z,3.60
2024-03-05T21:40:34.193Z,3.60
2024-03-05T21:43:18.182Z,3.60
2024-03-05T21:46:06.217Z,3.60
2024-03-05T21:48:51.297Z,4.40
2024-03-05T21:51:31.243Z,3.80
2024-03-05T21:54:27.193Z,3.50
2024-03-05T21:57:01.915Z,3.50
2024-03-05T21:59:48.551Z,3.70
2024-03-05T22:02:22.925Z,4.60
2024-03-05T22:04:57.291Z,3.60
2024-03-05T22:07:42.554Z,4.20
2024-03-05T22:10:27.797Z,3.60
2024-03-05T22:13:12.197Z,3.80
2024-03-05T22:15:59.454Z,3.60
2024-03-05T22:18:35.624Z,3.60
2024-03-05T22:21:25.189Z,3.80
2024-03-05T22:24:03.515Z,3.60
2024-03-05T22:26:47.584Z,3.50
2024-03-05T22:29:30.567Z,3.60
2024-03-05T22:32:27.265Z,4.00
2024-03-05T22:35:07.815Z,3.60
2024-03-05T22:37:55.032Z,4.10
2024-03-05T22:40:34.842Z,3.70
2024-03-05T22:43:25.051Z,3.90
2024-03-05T22:46:09.698Z,3.70
2024-03-05T22:48:59.659Z,3.70
2024-03-05T22:51:52.098Z,2.80
2024-03-05T22:54:49.855Z,3.60
2024-03-05T22:57:37.898Z,3.70
2024-03-05T23:00:26.311Z,3.80
2024-03-05T23:03:03.555Z,3.70
2024-03-05T23:05:49.356Z,4.30
2024-03-05T23:08:32.731Z,3.60
2024-03-05T23:11:17.020Z,3.70
2024-03-05T23:13:50.790Z,4.00
2024-03-05T23:16:25.172Z,3.80
2024-03-05T23:19:01.843Z,3.80
2024-03-05T23:21:44.830Z,4.30
2024-03-05T23:24:26.079Z,3.80
2024-03-05T23:27:15.937Z,4.00
2024-03-05T23:30:00.503Z,3.80
2024-03-05T23:32:58.254Z,3.80
2024-03-05T23:35:38.329Z,3.80
2024-03-05T23:38:22.957Z,3.70
2024-03-05T23:41:20.427Z,3.80
2024-03-05T23:44:03.145Z,4.20
2024-03-05T23:46:47.700Z,3.60
2024-03-05T23:49:35.255Z,3.90
2024-03-05T23:52:20.422Z,3.70
2024-03-05T23:55:03.046Z,4.00
2024-03-05T23:57:49.131Z,4.40
